Time;durP1;ratioP1;P1;durP2;ratioP2;P2;SDS_P1;SDS_P2;PMS_P1;PMS_P2;Temp;Humidity;BMP_temperature;BMP_pressure;BME280_temperature;BME280_humidity;BME280_pressure;Samples;Min_cycle;Max_cycle;Signal;HPM_P1;HPM_P2
2022/03/17 00:01:49;;;;;;;22.80;18.85;;;12.60;90.50;;;;;;6161109;23;20017;-85
2022/03/17 00:04:15;;;;;;;25.52;19.92;;;12.60;90.50;;;;;;6180171;23;20032;-86
2022/03/17 00:06:41;;;;;;;26.88;18.77;;;12.60;90.50;;;;;;6131067;23;20013;-86
2022/03/17 00:09:07;;;;;;;25.77;19.35;;;12.60;90.60;;;;;;6157403;23;19989;-86
2022/03/17 00:11:34;;;;;;;23.85;18.27;;;12.60;90.60;;;;;;6108632;23;19998;-88
2022/03/17 00:14:01;;;;;;;23.13;18.90;;;12.60;90.70;;;;;;6156437;23;20006;-88
2022/03/17 00:16:28;;;;;;;23.02;18.55;;;12.60;90.70;;;;;;6129288;23;20013;-86
2022/03/17 00:18:55;;;;;;;23.10;18.95;;;12.50;90.90;;;;;;6102566;23;20017;-85
2022/03/17 00:21:21;;;;;;;25.27;20.17;;;12.60;91.00;;;;;;6087198;23;20010;-84
2022/03/17 00:23:50;;;;;;;25.25;20.15;;;12.50;90.90;;;;;;6105080;23;20006;-85
2022/03/17 00:26:17;;;;;;;22.95;18.85;;;12.60;91.10;;;;;;6129022;23;20009;-84
2022/03/17 00:28:45;;;;;;;25.00;20.10;;;12.50;91.20;;;;;;6104721;23;20013;-83
2022/03/17 00:31:11;;;;;;;24.95;19.90;;;12.50;91.30;;;;;;6105318;23;20365;-83
2022/03/17 00:33:36;;;;;;;24.42;20.20;;;12.50;91.30;;;;;;6129769;23;20009;-83
2022/03/17 00:36:02;;;;;;;25.23;20.33;;;12.50;91.40;;;;;;6104421;23;20024;-83
2022/03/17 00:38:28;;;;;;;26.52;21.50;;;12.50;91.60;;;;;;6129204;23;20037;-84
2022/03/17 00:40:53;;;;;;;24.70;20.02;;;12.50;91.40;;;;;;6129093;23;20029;-86
2022/03/17 00:43:22;;;;;;;24.77;20.67;;;12.50;91.30;;;;;;6104936;23;20014;-83
2022/03/17 00:45:48;;;;;;;24.30;19.55;;;12.50;91.50;;;;;;6082496;23;20409;-84
2022/03/17 00:48:14;;;;;;;24.83;20.52;;;12.50;91.50;;;;;;6129153;23;20029;-84
2022/03/17 00:50:39;;;;;;;27.70;21.02;;;12.40;91.50;;;;;;6080708;23;20332;-83
2022/03/17 00:53:05;;;;;;;26.77;20.70;;;12.40;91.70;;;;;;6129752;23;20005;-84
2022/03/17 00:55:32;;;;;;;26.27;20.38;;;12.40;91.70;;;;;;6116557;23;20438;-83
2022/03/17 00:57:57;;;;;;;25.55;19.65;;;12.40;91.70;;;;;;6129894;23;20041;-84
2022/03/17 01:00:23;;;;;;;25.13;20.23;;;12.40;91.70;;;;;;6104762;23;20009;-83
2022/03/17 01:02:53;;;;;;;27.65;21.35;;;12.40;91.70;;;;;;6130026;23;20018;-82
2022/03/17 01:05:20;;;;;;;26.38;21.55;;;12.40;91.80;;;;;;6128989;23;20349;-83
2022/03/17 01:07:46;;;;;;;25.67;19.70;;;12.40;91.80;;;;;;6155309;23;20005;-83
2022/03/17 01:10:16;;;;;;;25.35;19.88;;;12.40;91.70;;;;;;6128493;23;20085;-84
2022/03/17 01:12:46;;;;;;;25.52;19.63;;;12.30;91.80;;;;;;6155143;23;19997;-84
2022/03/17 01:15:13;;;;;;;26.52;20.83;;;12.30;91.80;;;;;;6155387;23;20002;-83
2022/03/17 01:17:39;;;;;;;25.00;20.23;;;12.30;92.00;;;;;;6129426;23;20423;-84
2022/03/17 01:20:06;;;;;;;25.50;20.45;;;12.30;92.00;;;;;;6128783;23;20005;-87
2022/03/17 01:22:32;;;;;;;25.45;20.85;;;12.30;92.10;;;;;;6155120;23;19997;-84
2022/03/17 01:24:58;;;;;;;27.13;21.30;;;12.30;92.10;;;;;;6128486;23;20424;-84
2022/03/17 01:27:24;;;;;;;27.00;20.55;;;12.20;92.10;;;;;;6128270;23;20100;-83
2022/03/17 01:29:50;;;;;;;27.23;20.08;;;12.30;92.30;;;;;;6128317;23;20013;-84
2022/03/17 01:32:17;;;;;;;25.95;20.20;;;12.20;92.20;;;;;;6127765;23;20076;-84
2022/03/17 01:34:43;;;;;;;25.77;20.35;;;12.20;92.30;;;;;;6129203;23;20004;-84
2022/03/17 01:37:09;;;;;;;25.05;20.45;;;12.30;92.30;;;;;;6154418;23;20002;-85
2022/03/17 01:39:35;;;;;;;26.63;19.40;;;12.20;92.40;;;;;;6128391;23;20013;-84
2022/03/17 01:42:04;;;;;;;26.55;19.98;;;12.20;92.40;;;;;;6128229;23;20017;-84
2022/03/17 01:44:30;;;;;;;24.17;19.30;;;12.20;92.50;;;;;;6129514;23;20009;-85
2022/03/17 01:49:41;;;;;;;23.80;18.70;;;12.20;92.80;;;;;;6132788;23;20109;-84
2022/03/17 01:52:07;;;;;;;22.30;18.80;;;12.20;92.90;;;;;;6129030;23;20093;-83
2022/03/17 01:54:34;;;;;;;26.33;18.48;;;12.20;93.00;;;;;;6129194;23;20036;-84
2022/03/17 01:57:02;;;;;;;23.50;19.13;;;12.20;93.00;;;;;;6128862;23;20061;-85
2022/03/17 01:59:28;;;;;;;23.08;18.35;;;12.30;93.10;;;;;;6128896;23;20009;-85
2022/03/17 02:01:54;;;;;;;22.75;17.90;;;12.30;93.10;;;;;;6104977;23;20060;-84
2022/03/17 02:04:20;;;;;;;22.98;17.92;;;12.30;93.10;;;;;;6130706;23;20045;-84
2022/03/17 02:06:47;;;;;;;22.75;17.33;;;12.30;93.10;;;;;;6135870;23;20021;-84
2022/03/17 02:09:13;;;;;;;24.08;17.05;;;12.30;93.20;;;;;;6136085;23;20056;-85
2022/03/17 02:14:24;;;;;;;23.83;17.50;;;12.40;93.30;;;;;;6164225;23;20076;-84
2022/03/17 02:16:51;;;;;;;24.67;17.77;;;12.40;93.40;;;;;;6159618;23;20096;-84
2022/03/17 02:19:23;;;;;;;22.88;17.45;;;12.40;93.50;;;;;;6160027;23;20005;-83
2022/03/17 02:21:49;;;;;;;23.17;17.25;;;12.40;93.60;;;;;;6160749;23;20005;-84
2022/03/17 02:27:01;;;;;;;23.75;17.10;;;12.40;93.50;;;;;;6189033;23;20052;-83
2022/03/17 02:29:27;;;;;;;22.75;16.23;;;12.50;93.60;;;;;;6136704;23;20399;-84
2022/03/17 02:31:53;;;;;;;25.40;17.48;;;12.50;93.60;;;;;;6135916;23;20009;-84
2022/03/17 02:34:19;;;;;;;21.80;18.15;;;12.50;93.60;;;;;;6160290;23;20001;-84
2022/03/17 02:36:50;;;;;;;22.02;16.92;;;12.50;93.70;;;;;;6135750;23;20015;-84
2022/03/17 02:39:19;;;;;;;23.00;17.88;;;12.60;93.80;;;;;;6160305;23;20013;-84
2022/03/17 02:41:45;;;;;;;23.10;17.75;;;12.60;93.90;;;;;;6135821;23;20327;-84
2022/03/17 02:44:11;;;;;;;22.90;16.50;;;12.60;94.00;;;;;;6160738;23;20032;-84
2022/03/17 02:46:37;;;;;;;22.67;16.65;;;12.60;94.10;;;;;;6135582;23;20088;-85
2022/03/17 02:49:04;;;;;;;24.45;16.83;;;12.60;94.20;;;;;;6136365;23;20087;-84
2022/03/17 02:51:29;;;;;;;26.60;16.83;;;12.60;94.20;;;;;;6148068;23;20001;-84
2022/03/17 02:53:55;;;;;;;22.60;17.15;;;12.60;94.30;;;;;;6181211;23;20081;-84
2022/03/17 02:56:21;;;;;;;25.25;17.83;;;12.60;94.30;;;;;;6178982;23;20002;-84
2022/03/17 02:58:47;;;;;;;23.58;17.77;;;12.60;94.30;;;;;;6202698;23;20020;-84
2022/03/17 03:01:13;;;;;;;24.80;17.95;;;12.60;94.40;;;;;;6179138;23;20021;-84
2022/03/17 03:03:38;;;;;;;27.73;18.73;;;12.60;94.40;;;;;;6174800;23;20008;-85
2022/03/17 03:06:04;;;;;;;24.15;18.45;;;12.60;94.50;;;;;;6109060;23;20014;-83
2022/03/17 03:08:30;;;;;;;26.42;17.40;;;12.60;94.70;;;;;;6130805;23;20010;-84
2022/03/17 03:10:57;;;;;;;26.13;18.50;;;12.60;94.80;;;;;;6106088;23;20085;-84
2022/03/17 03:13:22;;;;;;;27.40;18.05;;;12.60;95.10;;;;;;6130749;23;20088;-84
2022/03/17 03:15:50;;;;;;;25.05;18.10;;;12.60;95.10;;;;;;6129718;23;20407;-84
2022/03/17 03:18:17;;;;;;;25.42;18.58;;;12.60;95.30;;;;;;6156452;23;20097;-85
2022/03/17 03:20:42;;;;;;;31.33;19.02;;;12.60;95.60;;;;;;6106724;23;20436;-84
2022/03/17 03:23:08;;;;;;;30.75;19.27;;;12.60;96.30;;;;;;6156604;23;20008;-84
2022/03/17 03:25:34;;;;;;;25.85;18.67;;;12.60;96.60;;;;;;6131101;23;19997;-84
2022/03/17 03:28:10;;;;;;;28.58;20.77;;;12.60;97.10;;;;;;6132166;23;20009;-85
2022/03/17 03:30:37;;;;;;;26.13;20.20;;;12.60;97.70;;;;;;6142358;23;20064;-87
2022/03/17 03:33:03;;;;;;;27.55;21.55;;;12.60;99.00;;;;;;6110908;23;20001;-83
2022/03/17 03:38:14;;;;;;;33.88;21.77;;;12.50;99.90;;;;;;6156596;23;20021;-84
2022/03/17 03:40:39;;;;;;;31.95;22.05;;;12.40;99.90;;;;;;6131039;23;20005;-83
2022/03/17 03:43:05;;;;;;;30.52;22.20;;;12.40;99.90;;;;;;6113350;23;20065;-84
2022/03/17 03:45:31;;;;;;;32.83;22.80;;;12.40;99.90;;;;;;6130483;23;20013;-84
2022/03/17 03:47:57;;;;;;;27.85;20.02;;;12.30;99.90;;;;;;6155618;23;19989;-85
2022/03/17 03:50:22;;;;;;;29.92;21.75;;;12.30;99.90;;;;;;6157478;23;19994;-88
2022/03/17 03:52:48;;;;;;;28.15;19.77;;;12.30;99.90;;;;;;6131785;23;20061;-86
2022/03/17 03:55:14;;;;;;;22.95;16.65;;;12.30;99.90;;;;;;6129181;23;20005;-85
2022/03/17 03:57:40;;;;;;;20.10;15.38;;;12.20;99.90;;;;;;6153706;23;20029;-86
2022/03/17 04:00:41;;;;;;;22.63;15.90;;;12.20;99.90;;;;;;6148032;23;20021;-85
2022/03/17 04:02:58;;;;;;;21.23;14.45;;;12.20;99.90;;;;;;6136375;23;20009;-84
2022/03/17 04:05:44;;;;;;;17.25;12.73;;;12.20;99.90;;;;;;6119083;23;20463;-86
2022/03/17 04:08:10;;;;;;;12.25;9.73;;;12.20;99.90;;;;;;6159529;23;20327;-85
2022/03/17 04:10:36;;;;;;;12.48;8.88;;;12.20;99.90;;;;;;6134049;23;20001;-83
2022/03/17 04:13:02;;;;;;;8.70;6.50;;;12.10;99.90;;;;;;6135310;23;20005;-83
2022/03/17 04:15:28;;;;;;;7.72;5.82;;;12.10;99.90;;;;;;6134270;23;20009;-84
2022/03/17 04:17:54;;;;;;;6.60;4.07;;;12.00;99.90;;;;;;6185689;23;20084;-84
2022/03/17 04:20:19;;;;;;;6.50;3.42;;;12.00;99.90;;;;;;6158949;23;20028;-84
2022/03/17 04:22:45;;;;;;;5.45;3.28;;;11.80;99.90;;;;;;6158785;23;20016;-83
2022/03/17 04:25:11;;;;;;;5.82;3.28;;;11.80;99.90;;;;;;6158963;23;20084;-83
2022/03/17 04:27:37;;;;;;;4.65;2.88;;;11.70;99.90;;;;;;6185370;23;20012;-84
2022/03/17 04:30:03;;;;;;;6.45;2.95;;;11.60;99.90;;;;;;6134712;23;20387;-84
2022/03/17 04:32:28;;;;;;;5.15;2.53;;;11.60;99.90;;;;;;6133693;23;20064;-84
2022/03/17 04:34:54;;;;;;;4.95;2.75;;;11.50;99.90;;;;;;6158958;23;20005;-84
2022/03/17 04:37:20;;;;;;;6.40;3.95;;;11.50;99.90;;;;;;6158683;23;20009;-84
2022/03/17 04:39:45;;;;;;;6.20;2.72;;;11.50;99.90;;;;;;6133934;23;20017;-84
2022/03/17 04:42:11;;;;;;;6.47;3.00;;;11.40;99.90;;;;;;6158742;23;20008;-84
2022/03/17 04:44:37;;;;;;;5.28;2.97;;;11.40;99.90;;;;;;6182887;23;20470;-85
2022/03/17 04:47:03;;;;;;;6.13;3.00;;;11.40;99.90;;;;;;6133712;23;20001;-84
2022/03/17 04:49:29;;;;;;;5.53;3.20;;;11.30;99.90;;;;;;6158263;23;20004;-85
2022/03/17 04:51:54;;;;;;;6.63;3.67;;;11.30;99.90;;;;;;6184465;23;20005;-85
2022/03/17 04:54:20;;;;;;;4.93;3.20;;;11.30;99.90;;;;;;6134128;23;20008;-84
2022/03/17 04:56:46;;;;;;;5.28;3.50;;;11.30;99.90;;;;;;6157921;23;20005;-84
2022/03/17 04:59:12;;;;;;;5.85;3.67;;;11.30;99.90;;;;;;6134327;23;20014;-84
2022/03/17 05:01:37;;;;;;;6.35;3.28;;;11.20;99.90;;;;;;6158691;23;20015;-83
2022/03/17 05:04:03;;;;;;;5.78;3.55;;;11.20;99.90;;;;;;6134030;23;20005;-82
2022/03/17 05:06:29;;;;;;;7.18;4.10;;;11.20;99.90;;;;;;6130777;23;20021;-83
2022/03/17 05:08:55;;;;;;;7.20;4.00;;;11.20;99.90;;;;;;6080792;23;20088;-83
2022/03/17 05:11:21;;;;;;;9.98;4.60;;;11.20;99.90;;;;;;6128740;23;20496;-83
2022/03/17 05:13:50;;;;;;;8.15;5.00;;;11.20;99.90;;;;;;6104488;23;20332;-84
2022/03/17 05:16:16;;;;;;;8.68;4.55;;;11.20;99.90;;;;;;6082066;23;20012;-84
2022/03/17 05:18:42;;;;;;;11.15;6.05;;;11.20;99.90;;;;;;6103963;23;20110;-84
2022/03/17 05:21:07;;;;;;;11.15;5.75;;;11.20;99.90;;;;;;6128793;23;20014;-84
2022/03/17 05:23:33;;;;;;;11.68;6.63;;;11.20;99.90;;;;;;6082537;23;20093;-85
2022/03/17 05:25:59;;;;;;;13.80;6.88;;;11.10;99.90;;;;;;6130388;23;20040;-84
2022/03/17 05:28:25;;;;;;;11.75;6.28;;;11.10;99.90;;;;;;6105204;23;20068;-84
2022/03/17 05:30:51;;;;;;;14.93;7.00;;;11.10;99.90;;;;;;6130089;23;20060;-84
2022/03/17 05:33:17;;;;;;;15.90;7.28;;;11.00;99.90;;;;;;6131470;23;20033;-84
2022/03/17 05:35:44;;;;;;;17.05;7.25;;;11.00;99.90;;;;;;6105472;23;20005;-84
2022/03/17 05:38:10;;;;;;;12.85;6.32;;;11.00;99.90;;;;;;6155975;23;20073;-84
2022/03/17 05:40:36;;;;;;;14.35;5.80;;;10.90;99.90;;;;;;6130817;23;20100;-84
2022/03/17 05:43:06;;;;;;;13.05;5.85;;;10.90;99.90;;;;;;6130136;23;20048;-83
2022/03/17 05:45:32;;;;;;;13.82;6.13;;;10.90;99.90;;;;;;6130874;23;20006;-82
2022/03/17 05:48:00;;;;;;;13.23;4.75;;;10.90;99.90;;;;;;6131055;23;20340;-84
2022/03/17 05:50:27;;;;;;;11.18;4.43;;;10.90;99.90;;;;;;6109980;23;20009;-83
2022/03/17 05:52:53;;;;;;;13.07;4.00;;;10.80;99.90;;;;;;6118477;23;20006;-84
2022/03/17 05:55:21;;;;;;;14.23;4.32;;;10.80;99.90;;;;;;6104919;23;20010;-84
2022/03/17 05:57:48;;;;;;;16.65;5.03;;;10.80;99.90;;;;;;6129026;23;20030;-85
2022/03/17 06:00:17;;;;;;;12.43;3.75;;;10.70;99.90;;;;;;6128907;23;20016;-85
2022/03/17 06:02:43;;;;;;;18.02;4.00;;;10.70;99.90;;;;;;6128638;23;20002;-85
2022/03/17 06:05:09;;;;;;;11.75;3.90;;;10.80;99.90;;;;;;6166325;23;20020;-85
2022/03/17 06:07:41;;;;;;;16.02;3.80;;;10.70;99.90;;;;;;6158600;23;20424;-84
2022/03/17 06:10:09;;;;;;;14.48;3.53;;;10.80;99.90;;;;;;6158681;23;20032;-85
2022/03/17 06:12:35;;;;;;;14.90;4.30;;;10.70;99.90;;;;;;6158900;23;20012;-85
2022/03/17 06:15:02;;;;;;;11.65;3.05;;;10.70;99.90;;;;;;6158960;23;20008;-85
2022/03/17 06:17:48;;;;;;;13.20;3.40;;;10.70;99.90;;;;;;6158465;23;20096;-85
2022/03/17 06:20:19;;;;;;;10.38;2.80;;;10.70;99.90;;;;;;6159705;23;20021;-85
2022/03/17 06:22:47;;;;;;;12.00;3.63;;;10.70;99.90;;;;;;6174646;23;19985;-85
2022/03/17 06:25:18;;;;;;;10.27;2.45;;;10.60;99.90;;;;;;6207952;23;19997;-86
2022/03/17 06:27:45;;;;;;;13.57;3.17;;;10.60;99.90;;;;;;6180636;23;20001;-88
2022/03/17 06:30:17;;;;;;;11.48;2.63;;;10.60;99.90;;;;;;6183197;23;19993;-86
2022/03/17 06:32:44;;;;;;;8.52;2.58;;;10.60;99.90;;;;;;6205124;23;20024;-89
2022/03/17 06:35:15;;;;;;;10.48;2.60;;;10.60;99.90;;;;;;6178274;23;20013;-85
2022/03/17 06:37:41;;;;;;;14.43;2.63;;;10.60;99.90;;;;;;6165907;23;20001;-86
2022/03/17 06:40:08;;;;;;;10.55;2.40;;;10.60;99.90;;;;;;6159944;23;20013;-85
2022/03/17 06:42:34;;;;;;;11.85;2.30;;;10.50;99.90;;;;;;6183678;23;19997;-86
2022/03/17 06:44:59;;;;;;;12.50;2.60;;;10.50;99.90;;;;;;6182258;23;20052;-85
2022/03/17 06:47:25;;;;;;;8.38;1.98;;;10.50;99.90;;;;;;6133977;23;20001;-86
2022/03/17 06:49:51;;;;;;;8.77;2.40;;;10.50;99.90;;;;;;6184675;23;20031;-85
2022/03/17 06:52:17;;;;;;;10.55;2.17;;;10.50;99.90;;;;;;6160615;23;20005;-85
2022/03/17 06:54:43;;;;;;;11.45;2.05;;;10.40;99.90;;;;;;6160128;23;20012;-85
2022/03/17 06:57:09;;;;;;;9.43;1.95;;;10.40;99.90;;;;;;6135068;23;20432;-84
2022/03/17 06:59:34;;;;;;;10.93;2.65;;;10.40;99.80;;;;;;6184988;23;20021;-86
2022/03/17 07:02:00;;;;;;;8.43;2.28;;;10.40;99.90;;;;;;6185269;23;20282;-87
2022/03/17 07:04:26;;;;;;;9.48;2.05;;;10.40;99.90;;;;;;6132758;23;20001;-85
2022/03/17 07:06:51;;;;;;;8.13;2.03;;;10.40;99.90;;;;;;6131160;23;20065;-85
2022/03/17 07:09:17;;;;;;;6.80;1.83;;;10.40;99.90;;;;;;6106306;23;20009;-85
2022/03/17 07:11:44;;;;;;;14.30;2.53;;;10.40;99.90;;;;;;6130996;23;20317;-85
2022/03/17 07:14:10;;;;;;;9.70;2.28;;;10.40;99.90;;;;;;6156637;23;20017;-85
2022/03/17 07:16:36;;;;;;;14.52;3.30;;;10.40;99.90;;;;;;6131140;23;20097;-86
2022/03/17 07:19:02;;;;;;;12.15;2.05;;;10.30;99.90;;;;;;6131542;23;20369;-85
2022/03/17 07:21:28;;;;;;;15.80;2.72;;;10.30;99.90;;;;;;6131518;23;20099;-84
2022/03/17 07:23:54;;;;;;;9.70;2.20;;;10.40;99.90;;;;;;6132163;23;20001;-85
2022/03/17 07:26:20;;;;;;;10.30;2.75;;;10.40;99.90;;;;;;6151435;23;20069;-87
2022/03/17 07:28:45;;;;;;;15.32;2.40;;;10.40;99.90;;;;;;6155136;23;20005;-86
2022/03/17 07:31:11;;;;;;;10.77;1.98;;;10.40;99.90;;;;;;6156085;23;19985;-88
2022/03/17 07:33:37;;;;;;;11.80;2.88;;;10.40;99.90;;;;;;6132161;23;20005;-88
2022/03/17 07:36:06;;;;;;;12.30;3.13;;;10.30;99.90;;;;;;6105405;23;20006;-86
2022/03/17 07:38:32;;;;;;;13.43;4.15;;;10.40;99.90;;;;;;6127779;23;20010;-88
2022/03/17 07:40:58;;;;;;;11.43;2.40;;;10.30;99.90;;;;;;6150180;23;20006;-84
2022/03/17 07:43:25;;;;;;;11.35;2.42;;;10.30;99.90;;;;;;6091840;23;20021;-84
2022/03/17 07:45:53;;;;;;;14.35;2.63;;;10.30;99.90;;;;;;6083377;23;20005;-85
2022/03/17 07:48:19;;;;;;;15.25;2.38;;;10.30;99.90;;;;;;6130475;23;20006;-84
2022/03/17 07:50:46;;;;;;;12.88;2.40;;;10.30;99.90;;;;;;6157066;23;20064;-84
2022/03/17 07:53:12;;;;;;;12.00;2.47;;;10.30;99.90;;;;;;6129845;23;20005;-84
2022/03/17 07:55:38;;;;;;;14.07;2.65;;;10.30;99.80;;;;;;6106326;23;20076;-85
2022/03/17 07:58:04;;;;;;;15.38;2.28;;;10.30;99.50;;;;;;6130202;23;20061;-84
2022/03/17 08:00:30;;;;;;;12.50;3.20;;;10.30;99.30;;;;;;6106005;23;20044;-84
2022/03/17 08:02:56;;;;;;;7.95;1.63;;;10.30;99.10;;;;;;6105513;23;20096;-84
2022/03/17 08:05:21;;;;;;;14.30;2.00;;;10.20;98.50;;;;;;6129375;23;20344;-84
2022/03/17 08:07:48;;;;;;;10.10;2.38;;;10.30;98.50;;;;;;6105326;23;20006;-84
2022/03/17 08:10:15;;;;;;;12.88;2.78;;;10.30;98.30;;;;;;6129487;23;20116;-84
2022/03/17 08:12:41;;;;;;;14.80;2.60;;;10.20;98.30;;;;;;6106216;23;20032;-83
2022/03/17 08:15:07;;;;;;;12.32;2.67;;;10.20;98.50;;;;;;6128677;23;20009;-85
2022/03/17 08:17:34;;;;;;;10.40;2.00;;;10.20;98.50;;;;;;6129918;23;20002;-85
2022/03/17 08:19:59;;;;;;;21.45;2.47;;;10.20;98.60;;;;;;6130423;23;20108;-85
2022/03/17 08:22:25;;;;;;;11.63;2.78;;;10.20;98.60;;;;;;6106557;23;20037;-85
2022/03/17 08:24:51;;;;;;;16.17;2.28;;;10.20;98.70;;;;;;6157189;23;20009;-85
2022/03/17 08:27:17;;;;;;;13.13;2.00;;;10.20;98.80;;;;;;6104914;23;20006;-85
2022/03/17 08:29:43;;;;;;;13.43;1.83;;;10.20;98.50;;;;;;6156954;23;20040;-84
2022/03/17 08:32:09;;;;;;;14.52;2.40;;;10.20;98.40;;;;;;6105627;23;20005;-85
2022/03/17 08:34:35;;;;;;;9.15;1.80;;;10.20;98.20;;;;;;6129620;23;20010;-84
2022/03/17 08:37:01;;;;;;;14.23;2.13;;;10.20;98.10;;;;;;6130168;23;20033;-85
2022/03/17 08:39:27;;;;;;;16.80;1.90;;;10.20;97.80;;;;;;6130905;23;20014;-84
2022/03/17 08:41:53;;;;;;;8.77;2.22;;;10.20;97.70;;;;;;6115514;23;20005;-85
2022/03/17 08:44:19;;;;;;;9.07;1.77;;;10.20;97.70;;;;;;6164167;23;20068;-84
2022/03/17 08:49:29;;;;;;;7.55;1.52;;;10.20;97.50;;;;;;6134132;23;20076;-83
2022/03/17 08:51:57;;;;;;;9.88;2.35;;;10.20;97.30;;;;;;6130152;23;20408;-84
2022/03/17 08:54:25;;;;;;;11.82;2.47;;;10.30;97.00;;;;;;6130052;23;20005;-83
2022/03/17 08:56:59;;;;;;;14.32;1.98;;;10.30;96.80;;;;;;6130022;23;19993;-84
2022/03/17 08:59:30;;;;;;;7.07;1.38;;;10.30;96.40;;;;;;6107274;23;20010;-84
2022/03/17 09:02:06;;;;;;;9.63;1.77;;;10.30;96.30;;;;;;6129478;23;20005;-83
2022/03/17 09:04:32;;;;;;;11.93;1.45;;;10.40;96.20;;;;;;6107297;23;20012;-84
2022/03/17 09:07:00;;;;;;;11.43;1.48;;;10.40;95.70;;;;;;6105683;23;20049;-83
2022/03/17 09:09:27;;;;;;;9.05;1.50;;;10.40;95.40;;;;;;6129766;23;20014;-84
2022/03/17 09:11:53;;;;;;;10.43;2.40;;;10.40;95.40;;;;;;6081146;23;20009;-84
2022/03/17 09:14:19;;;;;;;11.90;1.60;;;10.40;95.50;;;;;;6129043;23;20002;-84
2022/03/17 09:16:45;;;;;;;9.18;1.90;;;10.50;95.50;;;;;;6105154;23;20009;-84
2022/03/17 09:19:11;;;;;;;7.72;1.70;;;10.50;95.60;;;;;;6105284;23;20064;-84
2022/03/17 09:21:37;;;;;;;15.68;1.90;;;10.50;95.40;;;;;;6129918;23;20001;-83
2022/03/17 09:24:03;;;;;;;14.25;2.50;;;10.60;95.20;;;;;;6104836;23;20005;-82
2022/03/17 09:26:30;;;;;;;11.88;2.53;;;10.60;95.20;;;;;;6128063;23;20491;-86
2022/03/17 09:28:56;;;;;;;11.00;1.70;;;10.60;95.30;;;;;;6104548;23;20010;-87
2022/03/17 09:31:22;;;;;;;14.38;2.17;;;10.60;95.30;;;;;;6105694;23;20009;-88
2022/03/17 09:33:48;;;;;;;19.00;2.33;;;10.60;95.10;;;;;;6105745;23;20012;-85
2022/03/17 09:36:16;;;;;;;8.38;1.70;;;10.70;95.10;;;;;;6129718;23;20010;-84
2022/03/17 09:38:42;;;;;;;12.38;2.08;;;10.70;95.20;;;;;;6155432;23;20045;-84
2022/03/17 09:41:24;;;;;;;8.75;1.80;;;10.70;95.30;;;;;;6129167;23;19997;-84
2022/03/17 09:43:51;;;;;;;15.85;2.70;;;10.70;95.20;;;;;;6129661;23;20357;-83
2022/03/17 09:46:21;;;;;;;9.90;2.33;;;10.70;95.10;;;;;;6128995;23;20002;-84
2022/03/17 09:48:52;;;;;;;8.10;1.90;;;10.80;94.90;;;;;;6155355;23;20011;-83
2022/03/17 09:51:21;;;;;;;12.15;2.08;;;10.80;95.00;;;;;;6131206;23;20081;-84
2022/03/17 09:53:47;;;;;;;13.35;2.53;;;10.80;95.00;;;;;;6129292;23;20411;-85
2022/03/17 09:56:13;;;;;;;10.35;1.83;;;10.80;94.90;;;;;;6130383;23;20001;-85
2022/03/17 09:58:40;;;;;;;11.00;2.30;;;10.80;94.90;;;;;;6129903;23;20040;-85
2022/03/17 10:01:07;;;;;;;14.25;2.38;;;10.90;94.80;;;;;;6132474;23;20357;-84
2022/03/17 10:03:34;;;;;;;11.43;2.35;;;10.90;94.40;;;;;;6130849;23;20009;-84
2022/03/17 10:06:05;;;;;;;11.15;1.85;;;10.90;94.20;;;;;;6122047;23;20060;-84
2022/03/17 10:08:33;;;;;;;16.25;2.42;;;10.90;94.40;;;;;;6131725;23;20084;-84
2022/03/17 10:10:59;;;;;;;13.43;3.10;;;10.90;94.10;;;;;;6178753;23;20369;-85
2022/03/17 10:13:26;;;;;;;10.55;2.13;;;10.90;94.00;;;;;;6155577;23;20080;-85
2022/03/17 10:16:22;;;;;;;11.35;1.98;;;10.90;93.80;;;;;;6129161;23;20005;-86
2022/03/17 10:18:59;;;;;;;8.25;2.35;;;10.90;93.90;;;;;;6154233;23;20014;-85
2022/03/17 10:21:27;;;;;;;13.35;2.25;;;10.90;94.10;;;;;;6128033;23;20387;-85
2022/03/17 10:24:01;;;;;;;11.50;2.80;;;11.00;94.00;;;;;;6129442;23;20024;-87
2022/03/17 10:26:34;;;;;;;14.30;2.83;;;11.00;94.10;;;;;;6131135;23;20001;-86
2022/03/17 10:29:09;;;;;;;14.55;2.30;;;11.00;94.00;;;;;;6131388;23;20450;-87
2022/03/17 10:31:54;;;;;;;11.18;2.70;;;11.00;94.30;;;;;;6157528;23;19998;-86
2022/03/17 10:34:21;;;;;;;13.27;1.98;;;11.10;94.20;;;;;;6157373;23;20053;-84
2022/03/17 10:36:48;;;;;;;15.60;2.40;;;11.10;94.20;;;;;;6131387;23;20001;-88
2022/03/17 10:39:14;;;;;;;11.27;2.08;;;11.10;93.90;;;;;;6155861;23;20013;-85
2022/03/17 10:41:46;;;;;;;8.25;1.88;;;11.10;93.70;;;;;;6131334;23;20005;-85
2022/03/17 10:44:15;;;;;;;8.80;1.90;;;11.10;93.90;;;;;;6155886;23;20013;-84
2022/03/17 10:47:01;;;;;;;10.95;2.20;;;11.20;93.90;;;;;;6131132;23;20416;-85
2022/03/17 10:49:28;;;;;;;8.48;1.90;;;11.20;93.60;;;;;;6157179;23;20018;-85
2022/03/17 10:51:56;;;;;;;8.98;2.17;;;11.20;93.40;;;;;;6130779;23;20021;-86
2022/03/17 10:54:23;;;;;;;9.43;2.00;;;11.30;93.20;;;;;;6157089;23;20455;-85
2022/03/17 10:56:57;;;;;;;10.15;2.15;;;11.30;92.80;;;;;;6157564;23;20001;-85
2022/03/17 10:59:35;;;;;;;9.05;2.47;;;11.30;92.80;;;;;;6180330;23;20041;-85
2022/03/17 11:02:03;;;;;;;9.73;2.30;;;11.40;92.70;;;;;;6131468;23;20018;-84
2022/03/17 11:04:29;;;;;;;8.57;2.20;;;11.40;92.90;;;;;;6184923;23;20044;-83
2022/03/17 11:06:56;;;;;;;11.73;2.30;;;11.40;92.80;;;;;;6178309;23;20111;-85
2022/03/17 11:09:23;;;;;;;17.77;3.75;;;11.50;92.60;;;;;;6183234;23;20023;-86
2022/03/17 11:11:49;;;;;;;11.07;2.50;;;11.50;92.50;;;;;;6211887;23;20001;-86
2022/03/17 11:14:15;;;;;;;8.27;2.25;;;11.50;92.60;;;;;;6188386;23;20033;-90
2022/03/17 11:16:47;;;;;;;13.32;2.42;;;11.50;92.70;;;;;;6187540;23;20002;-86
2022/03/17 11:19:17;;;;;;;16.50;2.70;;;11.60;92.60;;;;;;6184575;23;20060;-88
2022/03/17 11:21:49;;;;;;;13.75;3.03;;;11.60;92.60;;;;;;6183386;23;20001;-87
2022/03/17 11:24:22;;;;;;;7.18;2.10;;;11.60;92.70;;;;;;6178287;23;20017;-86
2022/03/17 11:26:50;;;;;;;9.30;1.80;;;11.70;92.50;;;;;;6190503;23;20029;-86
2022/03/17 11:29:17;;;;;;;7.25;2.28;;;11.70;92.70;;;;;;6136849;23;20335;-86
2022/03/17 11:32:03;;;;;;;7.03;1.90;;;11.80;92.80;;;;;;6161168;23;20416;-85
2022/03/17 11:34:37;;;;;;;10.27;2.05;;;11.80;92.80;;;;;;6162137;23;20423;-86
2022/03/17 11:37:24;;;;;;;10.25;1.95;;;11.90;92.60;;;;;;6160064;23;20319;-84
2022/03/17 11:40:11;;;;;;;7.97;2.30;;;11.90;92.70;;;;;;6160183;23;20100;-85
2022/03/17 11:42:54;;;;;;;9.50;1.80;;;11.90;92.60;;;;;;6186356;23;20424;-85
2022/03/17 11:45:20;;;;;;;12.10;2.00;;;12.00;91.80;;;;;;6186592;23;20060;-87
2022/03/17 11:47:56;;;;;;;11.98;2.65;;;12.00;91.50;;;;;;6186487;23;20001;-85
2022/03/17 11:50:36;;;;;;;7.43;1.83;;;12.00;91.50;;;;;;6159708;23;20005;-84
2022/03/17 11:53:02;;;;;;;10.68;1.90;;;12.10;91.40;;;;;;6162821;23;20012;-84
2022/03/17 11:55:31;;;;;;;6.47;1.75;;;12.10;91.70;;;;;;6160260;23;20032;-85
2022/03/17 11:58:16;;;;;;;5.40;1.90;;;12.10;91.30;;;;;;6160308;23;20040;-85
2022/03/17 12:00:52;;;;;;;4.75;1.40;;;12.20;91.40;;;;;;6161380;23;20063;-84
2022/03/17 12:03:27;;;;;;;7.13;2.15;;;12.20;91.40;;;;;;6160274;23;20093;-85
2022/03/17 12:06:19;;;;;;;7.68;2.40;;;12.30;91.30;;;;;;6168733;23;20018;-86
2022/03/17 12:09:06;;;;;;;6.78;1.83;;;12.30;91.40;;;;;;6130724;23;20048;-85
2022/03/17 12:11:37;;;;;;;7.03;1.95;;;12.40;91.20;;;;;;6130887;23;20317;-85
2022/03/17 12:14:14;;;;;;;7.45;1.75;;;12.40;89.90;;;;;;6131461;23;20012;-85
2022/03/17 12:16:46;;;;;;;6.78;1.60;;;12.50;89.40;;;;;;6130268;23;20041;-85
2022/03/17 12:19:38;;;;;;;8.98;2.35;;;12.60;89.30;;;;;;6156345;23;20080;-86
2022/03/17 12:22:13;;;;;;;6.25;2.10;;;12.60;89.10;;;;;;6156058;23;19998;-86
2022/03/17 12:24:41;;;;;;;10.82;3.67;;;12.60;88.90;;;;;;6130590;23;20005;-84
2022/03/17 12:27:13;;;;;;;12.02;2.33;;;12.70;88.60;;;;;;6129555;23;20006;-85
2022/03/17 12:29:40;;;;;;;7.22;1.70;;;12.70;87.60;;;;;;6128998;23;20024;-85
2022/03/17 12:32:12;;;;;;;6.20;2.30;;;12.70;86.50;;;;;;6128657;23;20002;-86
2022/03/17 12:34:39;;;;;;;8.43;1.70;;;12.70;87.10;;;;;;6130203;23;20309;-85
2022/03/17 12:37:06;;;;;;;6.93;1.70;;;12.80;86.00;;;;;;6130568;23;20009;-85
2022/03/17 12:39:34;;;;;;;6.43;1.65;;;12.80;84.70;;;;;;6105463;23;20076;-83
2022/03/17 12:42:00;;;;;;;10.70;1.95;;;12.90;83.90;;;;;;6130937;23;20036;-84
2022/03/17 12:44:27;;;;;;;6.50;1.63;;;12.90;83.70;;;;;;6155780;23;20005;-83
2022/03/17 12:46:54;;;;;;;6.95;1.77;;;12.90;82.90;;;;;;6129964;23;20049;-83
2022/03/17 12:49:21;;;;;;;5.68;1.60;;;13.00;82.00;;;;;;6130099;23;20192;-85
2022/03/17 12:51:49;;;;;;;8.77;2.17;;;13.10;81.00;;;;;;6156176;23;19997;-84
2022/03/17 12:54:15;;;;;;;5.93;1.52;;;13.20;81.80;;;;;;6129976;23;20416;-87